createdAt,value
2022-11-28T00:03:11.169Z,101721.23
2022-11-28T00:08:17.008Z,101731.05
2022-11-28T00:13:22.472Z,101728.37
2022-11-28T00:18:28.403Z,101717.89
2022-11-28T00:23:34.295Z,101717.55
2022-11-28T00:28:40.066Z,101714.05
2022-11-28T00:33:45.600Z,101707.65
2022-11-28T00:38:52.033Z,101703.32
2022-11-28T00:43:58.448Z,101700.95
2022-11-28T00:49:04.120Z,101698.17
2022-11-28T00:54:09.646Z,101687.52
2022-11-28T00:59:15.133Z,101683.37
2022-11-28T01:04:20.534Z,101681.83
2022-11-28T01:09:26.447Z,101684.82
2022-11-28T01:14:32.183Z,101674.43
2022-11-28T01:19:37.644Z,101670.81
2022-11-28T01:24:43.312Z,101661.13
2022-11-28T01:29:49.105Z,101661.24
2022-11-28T01:34:54.574Z,101654.30
2022-11-28T01:40:00.038Z,101650.39
2022-11-28T01:45:23.634Z,101640.45
2022-11-28T01:50:30.701Z,101642.53
2022-11-28T01:55:39.197Z,101632.59
2022-11-28T02:00:44.632Z,101627.72
2022-11-28T02:05:52.491Z,101627.00
2022-11-28T02:11:17.239Z,101624.89
2022-11-28T02:16:28.390Z,101607.81
2022-11-28T02:21:46.050Z,101600.23
2022-11-28T02:27:03.336Z,101594.73
2022-11-28T02:32:22.979Z,101580.23
2022-11-28T02:37:37.383Z,101587.11
2022-11-28T02:42:48.409Z,101584.45
2022-11-28T02:47:56.827Z,101579.41
2022-11-28T02:53:17.107Z,101575.55
2022-11-28T02:58:22.506Z,101573.19
2022-11-28T03:03:46.321Z,101574.17
2022-11-28T03:09:07.123Z,101576.74
2022-11-28T03:14:27.620Z,101571.83
2022-11-28T03:19:36.129Z,101573.89
2022-11-28T03:25:02.558Z,101558.05
2022-11-28T03:30:19.662Z,101555.53
2022-11-28T03:35:28.059Z,101552.48
2022-11-28T03:40:36.495Z,101553.34
2022-11-28T03:45:44.939Z,101543.02
2022-11-28T03:50:53.385Z,101535.95
2022-11-28T03:56:14.048Z,101541.89
2022-11-28T04:01:42.170Z,101542.31
2022-11-28T04:06:56.746Z,101533.17
2022-11-28T04:12:11.243Z,101531.94
2022-11-28T04:17:22.642Z,101523.75
2022-11-28T04:22:33.816Z,101525.70
2022-11-28T04:27:45.078Z,101517.44
2022-11-28T04:32:53.523Z,101507.31
2022-11-28T04:38:01.290Z,101503.61
2022-11-28T04:43:12.575Z,101494.09
2022-11-28T04:48:18.495Z,101490.86
2022-11-28T04:53:45.269Z,101489.58
2022-11-28T04:58:51.973Z,101494.48
2022-11-28T05:03:58.169Z,101498.80
2022-11-28T05:09:04.598Z,101497.13
2022-11-28T05:14:10.236Z,101491.07
2022-11-28T05:19:16.156Z,101488.53
2022-11-28T05:24:22.570Z,101490.48
2022-11-28T05:29:28.112Z,101490.52
2022-11-28T05:34:33.493Z,101490.64
2022-11-28T05:39:39.048Z,101485.23
2022-11-28T05:44:44.442Z,101480.41
2022-11-28T05:49:49.906Z,101484.48
2022-11-28T05:54:55.367Z,101482.47
2022-11-28T06:00:00.834Z,101482.25
2022-11-28T06:05:34.825Z,101478.80
2022-11-28T06:10:15.781Z,101479.70
2022-11-28T06:15:21.168Z,101476.83
2022-11-28T06:20:26.801Z,101480.23
2022-11-28T06:25:32.193Z,101470.72
2022-11-28T06:30:37.668Z,101478.38
2022-11-28T06:35:43.133Z,101476.22
2022-11-28T06:40:48.543Z,101483.91
2022-11-28T06:45:54.135Z,101479.66
2022-11-28T06:51:06.568Z,101479.77
2022-11-28T06:56:14.977Z,101483.18
2022-11-28T07:01:22.981Z,101482.38
2022-11-28T07:06:29.809Z,101475.60
2022-11-28T07:11:35.208Z,101477.55
2022-11-28T07:16:41.344Z,101472.80
2022-11-28T07:21:46.889Z,101470.22
2022-11-28T07:26:52.449Z,101465.94
2022-11-28T07:31:57.941Z,101464.61
2022-11-28T07:37:03.641Z,101471.56
2022-11-28T07:42:09.040Z,101471.84
2022-11-28T07:47:14.435Z,101461.90
2022-11-28T07:52:19.844Z,101451.92
2022-11-28T07:57:25.309Z,101448.67
2022-11-28T08:02:32.671Z,101441.42
2022-11-28T08:07:38.282Z,101435.25
2022-11-28T08:12:43.897Z,101420.13
2022-11-28T08:17:49.309Z,101419.89
2022-11-28T08:22:54.711Z,101424.70
2022-11-28T08:28:00.176Z,101411.00
2022-11-28T08:33:05.572Z,101409.53
2022-11-28T08:38:10.971Z,101413.20
2022-11-28T08:43:16.372Z,101416.13
2022-11-28T08:48:21.877Z,101427.91
2022-11-28T08:53:27.918Z,101434.55
2022-11-28T08:58:33.325Z,101431.86
2022-11-28T09:03:38.823Z,101438.38
2022-11-28T09:08:45.353Z,101431.28
2022-11-28T09:13:51.292Z,101427.61
2022-11-28T09:18:58.712Z,101433.14
2022-11-28T09:24:04.419Z,101432.31
2022-11-28T09:29:09.814Z,101433.94
2022-11-28T09:34:15.201Z,101436.76
2022-11-28T09:39:20.615Z,101427.42
2022-11-28T09:44:53.808Z,101432.73
2022-11-28T09:50:07.004Z,101429.15
2022-11-28T09:55:35.834Z,101419.50
2022-11-28T10:00:44.287Z,101421.78
2022-11-28T10:05:55.413Z,101409.08
2022-11-28T10:11:06.823Z,101401.24
2022-11-28T10:16:21.162Z,101385.55
2022-11-28T10:21:29.741Z,101383.17
2022-11-28T10:26:40.255Z,101384.88
2022-11-28T10:31:47.761Z,101366.63
2022-11-28T10:37:12.815Z,101372.03
2022-11-28T10:42:49.744Z,101370.66
2022-11-28T10:48:38.915Z,101356.13
2022-11-28T10:53:26.209Z,101349.71
2022-11-28T10:58:34.676Z,101342.19
2022-11-28T11:03:41.685Z,101342.38
2022-11-28T11:08:48.723Z,101335.95
2022-11-28T11:14:08.776Z,101328.44
2022-11-28T11:19:19.788Z,101328.84
2022-11-28T11:24:25.175Z,101328.59
2022-11-28T11:29:35.707Z,101320.76
2022-11-28T11:34:46.583Z,101315.92
2022-11-28T11:39:54.151Z,101314.31
2022-11-28T11:45:18.849Z,101316.14
2022-11-28T11:50:26.682Z,101295.31
2022-11-28T11:55:34.952Z,101309.84
2022-11-28T12:00:42.363Z,101297.87
2022-11-28T12:06:16.375Z,101295.91
2022-11-28T12:11:03.790Z,101297.24
2022-11-28T12:16:27.322Z,101304.05
2022-11-28T12:21:38.618Z,101290.95
2022-11-28T12:26:58.915Z,101297.19
2022-11-28T12:32:07.350Z,101282.30
2022-11-28T12:38:02.661Z,101290.50
2022-11-28T12:43:18.613Z,101278.20
2022-11-28T12:48:53.598Z,101276.87
2022-11-28T12:54:02.304Z,101275.23
2022-11-28T12:59:11.786Z,101284.61
2022-11-28T13:04:31.963Z,101275.76
2022-11-28T13:09:46.841Z,101283.23
2022-11-28T13:15:01.738Z,101283.50
2022-11-28T13:20:28.051Z,101288.25
2022-11-28T13:25:48.688Z,101289.48
2022-11-28T13:31:00.077Z,101285.69
2022-11-28T13:36:08.332Z,101282.89
2022-11-28T13:41:59.474Z,101292.85
2022-11-28T13:46:31.855Z,101291.02
2022-11-28T13:51:37.954Z,101298.17
2022-11-28T13:56:44.299Z,101294.37
2022-11-28T14:01:52.769Z,101298.28
2022-11-28T14:07:04.991Z,101292.84
2022-11-28T14:12:22.540Z,101301.78
2022-11-28T14:17:36.622Z,101303.25
2022-11-28T14:23:08.762Z,101299.25
2022-11-28T14:28:37.021Z,101297.23
2022-11-28T14:33:44.830Z,101300.61
2022-11-28T14:39:06.407Z,101300.98
2022-11-28T14:44:50.732Z,101298.67
2022-11-28T14:50:13.234Z,101303.07
2022-11-28T14:55:28.233Z,101300.72
2022-11-28T15:00:51.649Z,101310.21
2022-11-28T15:06:06.044Z,101310.38
2022-11-28T15:11:39.312Z,101302.95
2022-11-28T15:16:50.635Z,101301.84
2022-11-28T15:21:58.437Z,101302.59
2022-11-28T15:27:12.718Z,101306.66
2022-11-28T15:32:18.325Z,101302.67
2022-11-28T15:37:27.101Z,101313.79
2022-11-28T15:42:35.506Z,101307.89
2022-11-28T15:47:41.537Z,101311.30
2022-11-28T15:53:17.650Z,101305.41
2022-11-28T15:58:31.272Z,101299.64
2022-11-28T16:03:46.495Z,101311.52
2022-11-28T16:09:01.022Z,101302.44
2022-11-28T16:14:11.937Z,101308.58
2022-11-28T16:19:36.080Z,101307.17
2022-11-28T16:24:50.302Z,101301.45
2022-11-28T16:29:56.110Z,101308.76
2022-11-28T16:35:03.464Z,101302.13
2022-11-28T16:40:23.641Z,101295.41
2022-11-28T16:45:32.769Z,101295.41
2022-11-28T16:50:38.949Z,101287.95
2022-11-28T16:55:46.244Z,101281.47
2022-11-28T17:01:03.263Z,101290.17
2022-11-28T17:06:11.898Z,101288.80
2022-11-28T17:11:20.101Z,101284.53
2022-11-28T17:16:28.267Z,101285.06
2022-11-28T17:21:46.071Z,101278.47
2022-11-28T17:26:53.171Z,101282.27
2022-11-28T17:31:59.537Z,101281.47
2022-11-28T17:37:05.374Z,101276.12
2022-11-28T17:42:12.127Z,101276.12
2022-11-28T17:47:17.528Z,101274.34
2022-11-28T17:52:24.873Z,101281.13
2022-11-28T17:57:30.798Z,101274.50
2022-11-28T18:02:36.238Z,101266.63
2022-11-28T18:07:41.882Z,101274.80
2022-11-28T18:12:49.038Z,101276.47
2022-11-28T18:17:56.487Z,101272.41
2022-11-28T18:23:01.953Z,101276.43
2022-11-28T18:28:07.986Z,101280.41
2022-11-28T18:33:14.680Z,101284.05
2022-11-28T18:38:20.676Z,101282.11
2022-11-28T18:43:26.077Z,101290.22
2022-11-28T18:48:31.464Z,101292.83
2022-11-28T18:53:37.415Z,101294.16
2022-11-28T18:58:44.844Z,101291.05
2022-11-28T19:03:53.485Z,101299.05
2022-11-28T19:09:01.600Z,101301.55
2022-11-28T19:14:08.114Z,101301.73
2022-11-28T19:19:13.978Z,101307.53
2022-11-28T19:24:19.424Z,101311.88
2022-11-28T19:29:25.311Z,101300.91
2022-11-28T19:34:31.023Z,101299.13
2022-11-28T19:39:36.447Z,101299.13
2022-11-28T19:44:41.934Z,101302.91
2022-11-28T19:49:47.539Z,101299.69
2022-11-28T19:54:53.503Z,101299.04
2022-11-28T19:59:58.973Z,101302.11
2022-11-28T20:05:04.446Z,101312.88
2022-11-28T20:10:11.020Z,101309.42
2022-11-28T20:15:18.492Z,101303.47
2022-11-28T20:20:24.981Z,101304.00
2022-11-28T20:25:30.710Z,101315.70
2022-11-28T20:30:37.697Z,101312.67
2022-11-28T20:35:43.271Z,101323.46
2022-11-28T20:40:48.745Z,101314.98
2022-11-28T20:45:54.203Z,101309.23
2022-11-28T20:51:00.000Z,101309.23
2022-11-28T20:56:07.707Z,101308.47
2022-11-28T21:01:18.442Z,101309.45
2022-11-28T21:06:24.322Z,101309.45
2022-11-28T21:11:55.582Z,101314.47
2022-11-28T21:16:37.377Z,101310.31
2022-11-28T21:21:43.355Z,101310.31
2022-11-28T21:26:53.459Z,101316.45
2022-11-28T21:31:56.517Z,101313.77
2022-11-28T21:37:01.927Z,101313.73
2022-11-28T21:42:07.592Z,101315.81
2022-11-28T21:47:13.327Z,101317.84
2022-11-28T21:52:20.433Z,101317.02
2022-11-28T21:57:25.831Z,101305.85
2022-11-28T22:02:31.828Z,101319.25
2022-11-28T22:07:37.589Z,101315.20
2022-11-28T22:12:45.732Z,101321.44
2022-11-28T22:17:51.198Z,101313.60
2022-11-28T22:22:56.580Z,101309.35
2022-11-28T22:28:02.633Z,101310.19
2022-11-28T22:33:08.362Z,101308.41
2022-11-28T22:38:18.468Z,101303.36
2022-11-28T22:43:24.051Z,101303.36
2022-11-28T22:48:31.376Z,101312.59
2022-11-28T22:53:36.938Z,101314.41
2022-11-28T22:58:44.860Z,101313.78
2022-11-28T23:03:51.251Z,101314.20
2022-11-28T23:08:58.179Z,101303.23
2022-11-28T23:14:05.408Z,101310.82
2022-11-28T23:19:17.265Z,101314.64
2022-11-28T23:24:24.128Z,101317.02
2022-11-28T23:29:30.428Z,101306.10
2022-11-28T23:34:36.282Z,101306.10
2022-11-28T23:39:41.750Z,101305.95
2022-11-28T23:44:47.775Z,101312.70
2022-11-28T23:49:54.613Z,101308.79
2022-11-28T23:55:00.103Z,101307.92
